Recent Weather

Hourly Averages

Time Temperature Humidity Pressure UV Index Image
 
July 23rd, 2017
6:00 am 75.1 99.0 1.0
5:00 am 74.7 99.0 1.0
4:00 am 74.4 99.0 1.0
3:00 am 76.0 99.0 1.0
2:00 am 75.6 99.0 1.0
1:00 am 75.1 99.0 1.0
12:00 am 75.9 99.0 1.0
 
July 22nd, 2017
11:00 pm 76.6 99.0 1.0
10:00 pm 77.1 99.0 1.0
9:00 pm 80.5 95.4 1.0
8:00 pm 84.1 88.3 1.0
7:00 pm 84.4 85.3 1.0
6:00 pm 85.3 83.6 1.0
5:00 pm 87.2 77.7 1.4
4:00 pm 88.1 76.0 1.2
3:00 pm 87.2 78.1 2.6
2:00 pm 84.9 80.6 2.6
1:00 pm 82.2 86.9 1.3
12:00 pm 77.2 96.0 1.0
11:00 am 74.8 99.0 1.0
10:00 am 74.5 99.0 1.0
9:00 am 74.4 99.0 1.0
8:00 am 73.4 99.0 1.0
7:00 am 72.6 99.0 1.0
6:00 am 72.2 99.0 1.0
5:00 am 72.0 99.0 1.0
4:00 am 72.2 99.0 1.0 Rain
3:00 am 72.3 99.0 1.0 Rain
2:00 am 74.8 99.0 1.0 Rain
1:00 am 75.5 99.0 1.0
12:00 am 74.6 98.9 1.0
 
July 21st, 2017
11:00 pm 76.9 98.2 1.0
10:00 pm 80.9 95.7 1.0 Rain
9:00 pm 83.8 91.4 1.0
8:00 pm 91.3 75.5 1.0
7:00 pm 98.3 65.3 1.0
6:00 pm 100.7 61.4 1.0
5:00 pm 100.7 60.6 1.8
4:00 pm 100.8 60.6 2.0
3:00 pm 98.0 69.3 2.8
2:00 pm 91.0 78.7 2.8
1:00 pm 85.6 79.3 1.3
12:00 pm 86.8 76.9 1.3
11:00 am 84.5 84.1 1.3
10:00 am 79.1 95.0 1.0
9:00 am 76.1 99.0 1.0
8:00 am 72.7 99.0 1.0
7:00 am 71.1 99.0 1.0
6:00 am 70.8 99.0 1.0 Rain
5:00 am 71.0 99.0 1.0 Rain
4:00 am 75.0 98.7 1.0 Rain
3:00 am 78.6 99.0 1.0
2:00 am 78.9 99.0 1.0
1:00 am 79.9 99.0 1.0
12:00 am 80.3 99.0 1.0
 
July 20th, 2017
11:00 pm 81.1 99.0 1.0
10:00 pm 82.8 98.4 1.0
9:00 pm 85.6 93.0 1.0
8:00 pm 88.1 86.6 1.0
7:00 pm 90.1 79.7 1.0
6:00 pm 91.0 76.8 1.0
5:00 pm 90.7 72.8 1.0
4:00 pm 92.5 71.0 1.6
3:00 pm 92.0 69.1 1.9
2:00 pm 90.9 69.0 2.2
1:00 pm 87.5 81.2 2.2
12:00 pm 80.1 99.0 1.0
11:00 am 75.1 99.0 1.0
6:00 am 70.1 99.0 1.0
5:00 am 69.3 99.0 1.0
4:00 am 69.9 99.0 1.0
3:00 am 69.9 99.0 1.0
2:00 am 70.0 99.0 1.0
1:00 am 71.4 98.8 1.0 Rain
12:00 am 76.7 94.6 1.0 Rain
 
July 19th, 2017
11:00 pm 78.9 97.3 1.0
10:00 pm 80.9 91.5 1.0
9:00 pm 84.3 83.2 1.0
8:00 pm 89.2 71.5 1.0
7:00 pm 94.4 60.7 1.0
6:00 pm 95.3 60.3 1.0
5:00 pm 97.4 56.9 1.6
4:00 pm 96.3 57.8 1.8
3:00 pm 97.0 56.1 2.3
2:00 pm 97.4 56.2 2.7
1:00 pm 93.5 63.9 2.3
12:00 pm 88.0 68.7 1.0
11:00 am 87.0 70.0 1.3
10:00 am 84.3 76.6 1.0
9:00 am 79.5 89.3 1.0
8:00 am 73.0 98.1 1.0
7:00 am 69.0 99.0 1.0
6:00 am 66.4 99.0 1.0
5:00 am 66.2 99.0 1.0
4:00 am 66.0 99.0 1.0
3:00 am 64.7 99.0 1.0
2:00 am 64.0 99.0 1.0
1:00 am 64.2 99.0 1.0
12:00 am 65.8 99.0 1.0
 
July 18th, 2017
11:00 pm 67.7 99.0 1.0
10:00 pm 71.9 93.9 1.0
9:00 pm 77.9 81.1 1.0
8:00 pm 86.9 66.4 1.0
7:00 pm 90.0 57.3 1.0
6:00 pm 92.4 53.8 1.1
5:00 pm 93.2 52.3 1.8
4:00 pm 93.0 54.2 2.0
3:00 pm 91.8 56.7 2.3
2:00 pm 91.6 58.5 3.1
1:00 pm 88.7 63.5 2.2
12:00 pm 85.8 67.8 1.6
11:00 am 82.7 75.0 1.2
10:00 am 78.4 84.5 1.0
9:00 am 74.2 87.1 1.0
8:00 am 70.7 91.4 1.0
7:00 am 65.5 96.5 1.0
6:00 am 63.4 93.9 1.0
5:00 am 64.1 90.8 1.0
4:00 am 64.3 96.4 1.0
3:00 am 64.8 98.3 1.0
2:00 am 65.4 99.0 1.0
1:00 am 66.6 99.0 1.0
12:00 am 68.3 98.3 1.0
 
July 17th, 2017
11:00 pm 70.0 97.2 1.0
10:00 pm 72.2 94.6 1.0
9:00 pm 76.5 85.5 1.0
8:00 pm 82.6 72.0 1.0
7:00 pm 86.7 62.1 1.0
6:00 pm 88.5 59.8 1.0
5:00 pm 89.6 60.7 1.9
4:00 pm 88.8 62.1 2.0
3:00 pm 88.6 63.6 2.3
2:00 pm 86.8 66.4 1.9
1:00 pm 85.7 69.3 2.6
12:00 pm 83.6 75.4 1.4
11:00 am 79.9 79.6 1.0
10:00 am 75.9 85.3 1.0
9:00 am 70.2 92.6 1.0
8:00 am 65.8 98.3 1.0
7:00 am 62.7 99.0 1.0
6:00 am 61.0 99.0 1.0
5:00 am 61.5 99.0 1.0
4:00 am 62.6 99.0 1.0
3:00 am 63.8 99.0 1.0
2:00 am 65.4 98.5 1.0
1:00 am 66.6 98.9 1.0
12:00 am 68.4 97.1 1.0
 
July 16th, 2017
11:00 pm 69.5 95.7 1.0
10:00 pm 70.9 94.1 1.0
9:00 pm 73.4 87.7 1.0
8:00 pm 76.6 82.3 1.0
7:00 pm 80.8 80.6 1.0
6:00 pm 84.5 75.6 1.0
5:00 pm 86.6 69.6 1.0
4:00 pm 90.2 65.3 1.6
3:00 pm 90.5 64.3 2.4
2:00 pm 88.2 67.0 2.9
1:00 pm 87.3 65.1 1.9
12:00 pm 84.8 71.3 1.3
11:00 am 83.2 76.2 1.2
10:00 am 77.9 85.0 1.0
9:00 am 72.5 94.5 1.0
8:00 am 69.2 99.0 1.0
7:00 am 66.7 99.0 1.0
6:00 am 64.4 99.0 1.0
5:00 am 64.1 99.0 1.0
4:00 am 63.9 99.0 1.0
3:00 am 64.0 99.0 1.0
2:00 am 64.2 99.0 1.0
1:00 am 63.2 99.0 1.0
12:00 am 63.9 99.0 1.0
 
July 15th, 2017
11:00 pm 65.2 99.0 1.0
10:00 pm 68.2 96.8 1.0
9:00 pm 72.5 87.4 1.0
8:00 pm 79.6 73.2 1.0
7:00 pm 82.9 64.0 1.0
6:00 pm 84.9 61.3 1.1
5:00 pm 85.4 59.2 1.8
4:00 pm 85.1 63.1 2.1
3:00 pm 84.0 62.9 3.1
2:00 pm 82.8 65.1 3.3
1:00 pm 80.7 67.9 2.1
12:00 pm 80.0 72.1 1.4
11:00 am 75.8 78.6 1.3
10:00 am 71.1 87.9 1.1
9:00 am 68.6 94.7 1.0
8:00 am 64.1 99.0 1.0
7:00 am 58.9 99.0 1.0
6:00 am 56.0 99.0 1.0
5:00 am 56.8 99.0 1.0
4:00 am 57.4 99.0 1.0
3:00 am 58.4 99.0 1.0
2:00 am 59.5 99.0 1.0
1:00 am 61.0 99.0 1.0
12:00 am 63.4 98.8 1.0
 
July 14th, 2017
11:00 pm 65.3 97.7 1.0
10:00 pm 67.5 91.2 1.0
9:00 pm 70.5 84.4 1.0
8:00 pm 74.6 74.6 1.0
7:00 pm 77.5 66.5 1.0
6:00 pm 78.6 65.3 1.0
5:00 pm 79.3 67.8 1.9
4:00 pm 79.8 67.9 1.7
3:00 pm 80.7 69.0 2.7
2:00 pm 81.3 70.1 2.9
1:00 pm 81.7 70.6 2.4
12:00 pm 80.2 75.6 1.7
11:00 am 78.7 83.9 1.4
10:00 am 76.7 90.2 1.0
9:00 am 73.9 96.0 1.0
8:00 am 71.7 97.9 1.0
7:00 am 69.7 99.0 1.0
6:00 am 69.1 99.0 1.0
5:00 am 69.4 99.0 1.0
4:00 am 69.6 99.0 1.0
3:00 am 70.3 99.0 1.0
2:00 am 70.6 99.0 1.0
1:00 am 70.7 99.0 1.0
12:00 am 71.3 99.0 1.0
 
July 13th, 2017
11:00 pm 71.9 99.0 1.0
10:00 pm 74.1 95.3 1.0
9:00 pm 79.0 82.3 1.0
8:00 pm 83.6 81.6 1.0
7:00 pm 83.4 83.3 1.0
6:00 pm 82.9 85.0 1.0
5:00 pm 84.8 83.4 1.0
4:00 pm 85.6 79.3 1.0
3:00 pm 86.9 78.0 1.0
2:00 pm 88.4 76.2 3.2
1:00 pm 87.8 78.5 2.1
12:00 pm 84.5 86.5 1.6
11:00 am 80.7 95.6 1.0
10:00 am 77.4 99.0 1.0
9:00 am 77.3 99.0 1.0
8:00 am 77.5 99.0 1.0 Rain
7:00 am 76.3 99.0 1.0
6:00 am 75.3 99.0 1.0
5:00 am 75.2 99.0 1.0
4:00 am 75.3 99.0 1.0
3:00 am 77.1 97.3 1.0
2:00 am 77.6 98.9 1.0
1:00 am 76.8 99.0 1.0
12:00 am 75.4 99.0 1.0
 
July 12th, 2017
11:00 pm 75.2 98.3 1.0
10:00 pm 75.9 94.7 1.0
9:00 pm 76.8 95.3 1.0
8:00 pm 77.0 98.6 1.0
7:00 pm 75.4 99.0 1.0
6:00 pm 74.7 99.0 1.0
5:00 pm 73.6 99.0 1.0
4:00 pm 73.7 99.0 1.0 Rain
3:00 pm 77.2 91.4 1.0
2:00 pm 92.4 72.8 2.2
1:00 pm 90.1 74.4 1.6
12:00 pm 88.5 76.8 1.5
11:00 am 84.7 79.9 1.1
10:00 am 82.4 80.0 1.0
9:00 am 78.4 88.1 1.0
8:00 am 74.5 96.1 1.0
7:00 am 72.8 99.0 1.0
6:00 am 72.4 99.0 1.0
5:00 am 73.7 99.0 1.0
4:00 am 74.7 98.2 1.0
3:00 am 74.9 99.0 1.0
2:00 am 74.6 99.0 1.0
1:00 am 73.6 99.0 1.0
12:00 am 72.9 99.0 1.0
 
July 11th, 2017
11:00 pm 73.0 99.0 1.0
10:00 pm 74.6 99.0 1.0
9:00 pm 76.3 98.0 1.0
8:00 pm 78.4 91.0 1.0
7:00 pm 79.9 83.3 1.0
6:00 pm 81.7 81.0 1.0
5:00 pm 82.1 80.2 1.3
4:00 pm 79.8 88.4 1.8
3:00 pm 73.6 98.4 1.1
2:00 pm 70.8 99.0 1.0 Rain
1:00 pm 70.5 99.0 1.0 Rain
12:00 pm 72.6 98.1 1.0 Rain
11:00 am 80.9 90.8 1.0 Rain
10:00 am 80.1 92.5 1.0
9:00 am 78.8 94.9 1.0
8:00 am 74.8 98.9 1.0
7:00 am 73.3 99.0 1.0 Rain
6:00 am 72.8 99.0 1.0 Rain
5:00 am 72.6 99.0 1.0 Rain
4:00 am 73.5 98.8 1.0 Rain
3:00 am 74.8 98.9 1.0
2:00 am 77.5 92.8 1.0
1:00 am 79.2 88.3 1.0
12:00 am 79.4 87.7 1.0
 
July 10th, 2017
11:00 pm 80.6 85.3 1.0
10:00 pm 81.6 83.3 1.0
9:00 pm 82.9 81.6 1.0
8:00 pm 85.0 75.9 1.0
7:00 pm 88.2 70.8 1.0
6:00 pm 87.5 75.4 1.0
5:00 pm 86.9 74.8 1.1
4:00 pm 83.9 81.0 1.5
3:00 pm 78.7 90.0 1.4
2:00 pm 79.1 80.9 1.0 Rain
1:00 pm 84.2 64.5 1.0 Rain
12:00 pm 83.7 63.4 1.4
11:00 am 79.4 71.4 1.0
10:00 am 77.3 80.4 1.0
9:00 am 76.4 88.8 1.0
8:00 am 74.7 93.4 1.0
7:00 am 73.8 95.6 1.0
6:00 am 73.3 97.8 1.0
5:00 am 73.3 97.0 1.0
4:00 am 73.9 94.5 1.0
3:00 am 73.9 93.1 1.0
2:00 am 73.9 91.8 1.0
1:00 am 74.4 88.8 1.0
12:00 am 75.3 85.3 1.0
 
July 9th, 2017
11:00 pm 76.2 81.9 1.0
10:00 pm 77.6 78.4 1.0
9:00 pm 79.0 73.3 1.0
8:00 pm 82.7 64.7 1.0
7:00 pm 85.8 59.3 1.0
6:00 pm 88.0 54.9 1.1
5:00 pm 91.1 48.9 1.3
4:00 pm 94.9 46.6 2.0
3:00 pm 92.5 46.5 2.9
2:00 pm 88.8 46.3 3.8
1:00 pm 86.3 51.3 2.4
12:00 pm 83.8 55.1 1.3
11:00 am 82.1 59.6 1.4
10:00 am 78.7 68.5 1.0
9:00 am 72.5 72.4 1.0
8:00 am 66.1 91.4 1.0
7:00 am 59.1 99.0 1.0
6:00 am 53.9 99.0 1.0
5:00 am 54.1 99.0 1.0
4:00 am 54.7 99.0 1.0 Rain
3:00 am 55.3 99.0 1.0
2:00 am 56.4 99.0 1.0
1:00 am 57.8 99.0 1.0
12:00 am 59.3 99.0 1.0
 
July 8th, 2017
11:00 pm 61.5 98.8 1.0
10:00 pm 65.4 91.3 1.0
9:00 pm 70.6 77.4 1.0
8:00 pm 76.7 64.3 1.0
7:00 pm 80.9 55.9 1.0
6:00 pm 82.2 54.0 1.0
5:00 pm 81.4 143.7 1.8
4:00 pm 81.9 59.1 1.9
3:00 pm 81.2 59.6 2.2
2:00 pm 80.8 60.8 3.1
1:00 pm 80.0 61.4 2.5
12:00 pm 78.6 61.9 1.6
11:00 am 76.4 68.4 1.5
10:00 am 73.4 82.7 1.0
9:00 am 70.5 90.9 1.0
8:00 am 67.3 98.0 1.0
7:00 am 63.4 99.0 1.0
6:00 am 61.4 99.0 1.0 Rain
5:00 am 61.5 99.0 1.0
4:00 am 62.6 99.0 1.0
3:00 am 63.6 99.0 1.0
2:00 am 65.7 99.0 1.0
1:00 am 66.5 99.0 1.0
12:00 am 67.6 99.0 1.0
 
July 7th, 2017
11:00 pm 68.8 99.0 1.0
10:00 pm 70.6 99.0 1.0
9:00 pm 73.6 93.8 1.0
8:00 pm 80.4 80.1 1.0
7:00 pm 81.2 82.9 1.0
6:00 pm 77.6 90.7 1.0
5:00 pm 73.8 99.0 1.5
4:00 pm 71.6 94.7 1.0 Rain
3:00 pm 81.4 77.2 1.0
2:00 pm 87.6 72.5 1.2 Rain
1:00 pm 92.0 63.5 2.0
12:00 pm 89.8 67.4 1.1
11:00 am 88.1 70.9 1.3
10:00 am 85.4 76.9 1.0
9:00 am 81.5 84.1 1.0
8:00 am 77.5 92.9 1.0
7:00 am 73.1 99.0 1.0
6:00 am 71.6 99.0 1.0
5:00 am 71.6 99.0 1.0
4:00 am 72.0 99.0 1.0
3:00 am 72.6 99.0 1.0
2:00 am 73.2 99.0 1.0
1:00 am 74.2 98.5 1.0
12:00 am 75.4 94.1 1.0
 
July 6th, 2017
11:00 pm 76.9 88.0 1.0
10:00 pm 79.0 82.1 1.0
9:00 pm 83.0 73.3 1.0
8:00 pm 88.3 62.5 1.0
7:00 pm 92.3 55.5 1.0
6:00 pm 95.2 50.6 1.0
5:00 pm 100.3 42.8 1.9
4:00 pm 102.3 42.0 2.0
3:00 pm 101.2 47.2 2.7
2:00 pm 100.5 52.2 3.7
1:00 pm 92.6 62.4 2.4
12:00 pm 87.6 66.8 1.1
11:00 am 86.1 71.2 1.2
10:00 am 83.2 83.8 1.0
9:00 am 75.9 98.7 1.0
8:00 am 73.3 99.0 1.0
7:00 am 71.1 99.0 1.0
6:00 am 69.5 99.0 1.0
5:00 am 69.5 99.0 1.0
4:00 am 69.8 99.0 1.0
3:00 am 70.4 99.0 1.0
2:00 am 70.5 99.0 1.0
1:00 am 69.9 99.0 1.0
12:00 am 70.0 99.0 1.0
 
July 5th, 2017
11:00 pm 71.1 99.0 1.0
10:00 pm 72.2 95.8 1.0
9:00 pm 76.7 83.3 1.0
8:00 pm 83.9 71.6 1.0
7:00 pm 86.8 64.5 1.0
6:00 pm 88.2 63.0 1.0
5:00 pm 89.5 59.8 1.1
4:00 pm 95.5 55.8 1.8
3:00 pm 93.6 57.7 1.3
2:00 pm 91.3 63.1 1.8
1:00 pm 88.4 64.8 1.0
12:00 pm 89.4 63.6 1.0
11:00 am 84.2 70.9 1.0
10:00 am 81.6 71.5 1.0
9:00 am 78.0 74.3 1.0
8:00 am 72.4 81.9 1.0
7:00 am 67.7 94.4 1.0
6:00 am 64.1 99.0 1.0
5:00 am 64.8 99.0 1.0
4:00 am 66.2 99.0 1.0
3:00 am 67.9 99.0 1.0
2:00 am 69.3 99.0 1.0
1:00 am 70.1 99.0 1.0
12:00 am 71.5 98.3 1.0
 
July 4th, 2017
11:00 pm 73.1 94.7 1.0
10:00 pm 75.5 90.0 1.0
9:00 pm 78.3 85.2 1.0
8:00 pm 83.0 76.3 1.0
7:00 pm 88.7 65.1 1.0
6:00 pm 92.1 62.9 1.0
5:00 pm 92.4 61.5 1.5
4:00 pm 95.1 59.5 1.9
3:00 pm 97.9 55.7 2.8
2:00 pm 93.3 61.7 2.7
1:00 pm 94.5 63.3 1.9
12:00 pm 90.7 67.6 1.4
11:00 am 86.9 73.3 1.4
10:00 am 84.3 83.0 1.0
9:00 am 79.0 90.8 1.0
8:00 am 73.8 98.9 1.0
7:00 am 69.6 99.0 1.0
6:00 am 66.9 99.0 1.0
5:00 am 66.7 99.0 1.0
4:00 am 67.5 99.0 1.0 Rain
3:00 am 68.1 99.0 1.0
2:00 am 68.8 99.0 1.0
1:00 am 70.1 99.0 1.0
12:00 am 70.6 99.0 1.0
 
July 3rd, 2017
11:00 pm 71.8 99.0 1.0
10:00 pm 74.1 96.1 1.0
9:00 pm 79.3 83.0 1.0
8:00 pm 87.0 69.1 1.0
7:00 pm 87.4 64.9 1.0
6:00 pm 92.8 51.9 1.0
5:00 pm 94.4 49.6 1.9
4:00 pm 93.5 53.4 1.6
3:00 pm 96.8 48.3 1.9
2:00 pm 96.7 50.0 4.0
1:00 pm 93.4 53.8 2.6
12:00 pm 89.3 60.0 1.7
11:00 am 87.0 63.0 1.0
10:00 am 84.8 65.8 1.0
9:00 am 79.9 73.0 1.0
8:00 am 74.6 86.3 1.0
7:00 am 72.4 88.2 1.0
6:00 am 72.3 86.6 1.0
5:00 am 72.5 85.6 1.0
4:00 am 72.1 89.7 1.0
3:00 am 71.6 93.8 1.0
2:00 am 70.9 96.9 1.0
1:00 am 69.6 99.0 1.0
12:00 am 70.2 98.5 1.0
 
July 2nd, 2017
11:00 pm 72.6 93.6 1.0
10:00 pm 75.7 78.6 1.0
9:00 pm 79.0 72.0 1.0
8:00 pm 84.4 58.3 1.0
7:00 pm 89.5 49.0 1.0
6:00 pm 89.9 47.7 1.0
5:00 pm 89.9 48.1 1.9
4:00 pm 88.7 50.2 2.2
3:00 pm 87.2 50.0 2.9
2:00 pm 86.6 50.2 4.0
1:00 pm 84.6 55.9 2.6
12:00 pm 82.5 57.1 1.6
11:00 am 80.7 62.6 1.6
10:00 am 79.1 66.3 1.0
9:00 am 74.8 78.3 1.0
8:00 am 68.6 93.2 1.0
7:00 am 63.7 99.0 1.0


Daily Log

Date Low High UV Index
July, 2017
2017-07-23 73.9 76.1 1.0
2017-07-22 71.9 88.5 4.0 Rain
2017-07-21 70.6 102.4 4.0 Rain
2017-07-20 69.2 93.3 4.0 Rain
2017-07-19 63.7 99.9 4.0
2017-07-18 63.2 94.4 5.0
2017-07-17 60.8 91.1 4.0
2017-07-16 62.8 91.3 4.0
2017-07-15 55.8 86.5 5.0
2017-07-14 65.1 82.7 5.0
2017-07-13 71.6 89.5 4.0 Rain
2017-07-12 72.1 93.7 4.0 Rain
2017-07-11 70.4 83.1 2.0 Rain
2017-07-10 73.1 89.3 3.0 Rain
2017-07-09 53.7 97.3 5.0 Rain
2017-07-08 60.4 83.1 5.0 Rain
2017-07-07 68.3 93.1 3.0 Rain
2017-07-06 69.3 102.7 5.0
2017-07-05 63.9 98.7 3.0
2017-07-04 66.3 100.2 4.0 Rain
2017-07-03 69.4 98.5 5.0
2017-07-02 59.5 90.4 5.0
2017-07-01 67.2 86.2 5.0 Rain
June, 2017
2017-06-30 68.6 86.3 2.0 Rain
2017-06-29 69.2 91.6 4.0 Rain
2017-06-28 50.4 85.5 3.0
2017-06-27 46.1 85.2 4.0
2017-06-26 52.1 75.0 3.0 Rain
2017-06-25 55.7 75.8 5.0
2017-06-24 57.5 77.5 5.0
2017-06-23 66.7 79.1 3.0 Rain
2017-06-22 71.0 85.3 4.0 Rain
2017-06-21 59.4 90.7 4.0
2017-06-20 57.1 84.5 4.0
2017-06-19 59.6 77.2 5.0 Rain
2017-06-18 65.0 78.7 5.0 Rain
2017-06-17 69.2 84.1 3.0
2017-06-16 63.0 92.1 4.0 Rain
2017-06-15 65.4 89.7 4.0 Rain
2017-06-14 65.8 92.4 5.0 Rain
2017-06-13 67.5 99.0 5.0 Rain
2017-06-12 69.4 95.0 5.0
2017-06-11 68.2 94.8 4.0
2017-06-10 66.0 92.4 4.0
2017-06-09 61.7 91.5 4.0
2017-06-08 45.2 95.0 5.0
2017-06-07 53.5 81.3 5.0
2017-06-06 51.6 82.4 5.0
2017-06-05 63.1 94.1 5.0
2017-06-04 70.6 93.0 4.0 Rain
2017-06-03 51.8 98.5 5.0
2017-06-02 46.9 96.7 5.0
2017-06-01 47.3 86.9 5.0
May, 2017
2017-05-31 52.8 78.9 5.0
2017-05-30 54.1 77.9 5.0
2017-05-29 58.1 84.9 5.0
2017-05-28 57.0 81.6 4.0 Rain
2017-05-27 60.8 83.0 3.0
2017-05-26 47.9 88.1 5.0 Rain
2017-05-25 54.3 64.6 1.0
2017-05-24 55.5 65.1 1.0 Rain
2017-05-23 56.7 82.5 3.0
2017-05-22 47.8 78.0 5.0
2017-05-21 56.3 71.8 6.0
2017-05-20 51.6 80.9 4.0 Rain
2017-05-19 52.5 69.7 5.0 Rain
2017-05-18 69.3 91.7 5.0 Rain
2017-05-17 68.4 87.2 4.0
2017-05-16 65.2 87.6 5.0
2017-05-15 52.9 93.6 5.0
2017-05-14 52.5 85.9 5.0
2017-05-13 43.5 80.2 5.0
2017-05-12 48.3 73.7 5.0
2017-05-11 51.7 65.0 1.0 Rain
2017-05-10 50.1 84.3 4.0 Rain
2017-05-09 45.1 64.0 2.0
2017-05-08 30.8 71.8 5.0 Rain
2017-05-07 33.7 64.3 5.0
2017-05-06 36.8 58.8 6.0 Rain
2017-05-05 41.2 58.1 5.0
2017-05-04 45.2 48.2 1.0 Rain
2017-05-03 32.0 59.9 2.0 Rain
2017-05-02 43.2 55.7 3.0
2017-05-01 48.1 67.6 2.0 Rain
April, 2017
2017-04-30 50.9 68.2 1.0
2017-04-29 51.2 59.2 2.0 Rain
2017-04-28 42.4 59.5 1.0
2017-04-27 48.8 61.5 3.0 Rain
2017-04-26 61.5 86.4 5.0 Rain
2017-04-25 48.1 83.2 5.0
2017-04-24 32.6 78.2 5.0
2017-04-23 33.0 73.9 5.0
2017-04-22 41.7 64.2 5.0
2017-04-21 43.7 59.5 2.0
2017-04-20 53.7 81.9 5.0 Rain
2017-04-19 61.4 84.7 4.0
2017-04-18 39.1 80.7 5.0
2017-04-17 47.3 81.0 5.0
2017-04-16 54.4 72.7 3.0 Rain
2017-04-15 57.4 83.5 5.0
2017-04-14 48.8 78.3 4.0 Rain
2017-04-13 44.7 73.4 3.0
2017-04-12 33.7 71.4 4.0
2017-04-11 45.1 62.5 3.0
2017-04-10 61.6 71.9 2.0 Rain
2017-04-09 52.1 77.4 4.0
2017-04-08 30.7 67.6 5.0
2017-04-07 31.5 55.0 6.0
2017-04-06 37.3 49.7 5.0
2017-04-05 41.5 53.3 3.0 Rain
2017-04-04 42.8 56.7 2.0
2017-04-03 49.7 67.2 1.0 Rain
2017-04-02 38.8 64.9 5.0
2017-04-01 38.2 61.5 5.0
March, 2017
2017-03-31 39.1 55.0 1.0 Rain
2017-03-30 44.3 59.2 4.0
2017-03-29 44.6 59.4 4.0
2017-03-28 40.8 54.8 3.0
2017-03-27 49.3 62.8 1.0 Rain
2017-03-26 53.1 63.8 3.0 Rain
2017-03-25 58.2 74.5 4.0 Rain
2017-03-24 49.7 77.5 5.0
2017-03-23 27.5 54.8 4.0
2017-03-22 24.5 42.5 6.0
2017-03-21 33.5 57.9 4.0 Rain
2017-03-20 40.1 54.1 2.0 Rain
2017-03-19 26.6 57.4 5.0
2017-03-18 36.4 44.5 1.0
2017-03-17 32.4 46.2 1.0 Rain
2017-03-16 14.5 48.1 5.0
2017-03-15 16.3 35.5 5.0
2017-03-14 14.0 32.4 5.0
2017-03-13 24.7 31.4 1.0
2017-03-12 13.5 43.1 5.0
2017-03-11 21.1 37.1 4.0
2017-03-10 22.6 40.6 5.0
2017-03-09 25.7 56.9 3.0
2017-03-08 37.1 58.4 5.0
2017-03-07 40.3 63.3 6.0 Rain
2017-03-06 52.3 62.0 1.0 Rain
2017-03-05 31.3 66.7 4.0
2017-03-04 29.0 46.3 5.0
2017-03-03 22.7 38.4 5.0
2017-03-02 27.0 39.8 3.0
2017-03-01 35.5 63.4 1.0 Rain
February, 2017
2017-02-28 45.2 64.0 1.0 Rain
2017-02-27 28.4 60.5 4.0
2017-02-26 18.2 50.9 5.0
2017-02-25 24.0 42.8 3.0 Rain
2017-02-24 43.1 68.2 2.0 Rain
2017-02-23 48.7 67.0 2.0 Rain
2017-02-22 48.0 70.8 5.0 Rain
2017-02-21 51.9 60.4 1.0
2017-02-20 36.2 59.6 2.0
2017-02-19 38.3 74.1 5.0
2017-02-18 45.3 70.5 4.0
2017-02-17 38.8 69.0 5.0
2017-02-16 27.2 50.6 6.0
2017-02-15 25.9 39.9 4.0
2017-02-14 32.6 52.5 5.0
2017-02-13 22.6 47.9 5.0
2017-02-12 32.3 52.5 5.0 Rain
2017-02-11 42.2 67.9 4.0 Rain
2017-02-10 7.9 45.6 3.0
2017-02-09 3.6 23.4 5.0
2017-02-08 20.7 34.9 1.0
2017-02-07 35.0 1,000.0 1.0 Rain
2017-02-06 22.2 55.3 3.0 Rain
2017-02-05 24.4 47.1 4.0
2017-02-04 8.2 35.9 3.0
2017-02-03 14.2 31.4 5.0
2017-02-02 17.0 30.6 5.0
2017-02-01 30.1 40.6 1.0
January, 2017
2017-01-31 36.4 41.5 1.0
2017-01-30 13.0 36.2 4.0
2017-01-29 24.0 28.8 1.0
2017-01-28 24.6 32.7 1.0
2017-01-27 25.0 31.3 1.0
2017-01-26 30.7 37.3 1.0 Rain
2017-01-25 37.3 51.9 2.0
2017-01-24 38.4 41.2 1.0
2017-01-23 39.1 43.3 1.0
2017-01-22 37.8 53.7 2.0
2017-01-21 44.7 65.4 4.0 Rain
2017-01-20 42.3 52.4 1.0
2017-01-19 33.9 44.9 1.0 Rain
2017-01-18 34.2 38.6 1.0 Rain
2017-01-17 36.1 55.8 1.0 Rain
2017-01-16 32.9 1,000.0 1.0 Rain
2017-01-15 23.5 36.4 1.0
2017-01-14 25.0 32.0 1.0 Rain
2017-01-13 19.7 1,000.0 2.0
2017-01-12 25.3 54.4 1.0 Rain
2017-01-11 27.5 60.8 1.0 Rain
2017-01-10 33.6 54.1 1.0 Rain
2017-01-09 18.2 33.9 1.0 Rain
2017-01-08 -1.8 24.7 4.0
2017-01-07 -5.8 18.4 4.0
2017-01-06 -3.4 12.4 4.0
2017-01-05 6.2 16.7 1.0
2017-01-04 15.2 29.9 4.0
2017-01-03 30.1 45.9 1.0
2017-01-02 30.4 49.5 1.0
2017-01-01 15.0 47.8 4.0
December, 2016
2016-12-31 19.8 48.8 4.0
2016-12-30 26.0 38.4 4.0
2016-12-29 32.0 40.1 4.0
2016-12-28 20.3 1,000.0 4.0 Rain
2016-12-27 25.6 40.8 4.0
2016-12-26 34.1 61.8 1.0 Rain
2016-12-25 33.6 45.0 1.0
2016-12-24 34.0 39.6 1.0 Rain
2016-12-23 25.6 37.9 1.0 Rain
2016-12-22 23.7 42.6 4.0
2016-12-21 18.4 41.7 4.0
2016-12-20 11.6 35.7 3.0
2016-12-19 -8.0 21.6 4.0 Rain
2016-12-18 -3.4 21.0 4.0 Rain
2016-12-17 19.7 32.5 1.0 Rain
2016-12-16 13.2 26.7 1.0
2016-12-15 2.4 15.9 4.0
2016-12-14 0.2 25.3 3.0
2016-12-13 6.9 24.1 2.0 Rain
November, 2016
2016-11-27 34.8 36.5 1.0
2016-11-26 36.4 49.3 2.0
2016-11-25 36.8 41.8 1.0
2016-11-24 38.1 46.9 1.0 Rain
2016-11-23 38.0 47.0 1.0 Rain
2016-11-22 21.6 47.7 2.0
2016-11-20 24.2 29.3 1.0
2016-11-19 29.6 41.9 1.0
2016-11-18 42.2 72.2 2.0 Rain
2016-11-17 36.2 76.6 4.0 Rain
2016-11-16 31.2 72.4 4.0 Rain
2016-11-15 36.9 66.1 4.0
2016-11-14 26.9 64.9 3.0
2016-11-13 22.9 61.6 5.0 Rain
2016-11-12 21.3 61.6 5.0 Rain
2016-11-11 35.9 58.3 4.0
2016-11-10 31.0 64.7 5.0
2016-11-09 33.1 60.9 4.0
2016-11-08 39.8 57.3 1.0 Rain
2016-11-07 34.6 78.0 4.0
2016-11-06 33.9 80.2 5.0
2016-11-05 32.0 73.3 4.0
2016-11-04 35.6 64.8 5.0 Rain
2016-11-03 47.6 67.8 4.0
2016-11-02 61.5 80.7 3.0 Rain
2016-11-01 57.0 82.5 3.0
October, 2016
2016-10-31 39.3 74.1 5.0
2016-10-30 43.3 1,000.0 5.0
2016-10-29 59.0 83.1 4.0
2016-10-28 33.8 70.2 4.0
2016-10-27 44.1 55.0 1.0
2016-10-26 45.2 62.5 1.0 Rain
2016-10-25 32.7 58.3 3.0
2016-10-24 37.1 66.5 5.0
2016-10-23 43.8 77.0 5.0
2016-10-22 31.7 65.2 5.0
2016-10-21 42.1 57.4 4.0
2016-10-20 52.3 59.3 1.0
2016-10-19 44.8 1,000.0 3.0 Rain
2016-10-18 60.2 79.1 2.0
2016-10-17 67.1 87.6 5.0
2016-10-16 63.4 74.6 1.0 Rain
2016-10-15 48.5 79.4 5.0 Rain
2016-10-14 34.3 79.6 5.0
2016-10-13 37.4 67.8 6.0
2016-10-12 53.0 78.1 3.0 Rain
2016-10-11 48.4 87.3 6.0
2016-10-10 41.8 84.5 5.0
2016-10-09 38.8 83.3 6.0
2016-10-08 34.7 73.0 6.0
2016-10-07 51.4 1,000.0 4.0
2016-10-06 60.7 93.3 6.0
2016-10-05 60.8 89.0 5.0
2016-10-04 55.3 90.2 7.0
2016-10-03 46.6 78.2 2.0
2016-10-02 49.7 71.8 4.0
2016-10-01 58.2 65.0 1.0
September, 2016
2016-09-30 59.5 69.4 2.0
2016-09-29 54.6 76.6 6.0
2016-09-28 46.9 65.4 3.0
2016-09-27 47.0 78.6 6.0
2016-09-26 51.8 75.9 6.0 Rain
2016-09-25 59.7 102.5 6.0 Rain
2016-09-24 65.9 91.6 5.0
2016-09-23 59.7 94.9 3.0
2016-09-22 55.6 1,000.0 5.0
2016-09-21 55.6 97.7 4.0 Rain
2016-09-20 55.1 105.2 6.0
2016-09-19 49.7 99.6 7.0
2016-09-18 55.7 90.5 6.0
2016-09-17 60.7 88.7 7.0
2016-09-16 57.8 93.5 3.0
2016-09-15 60.5 91.9 7.0
2016-09-14 65.0 82.2 7.0
2016-09-13 53.6 90.3 6.0 Rain
2016-09-12 49.4 93.7 7.0
2016-09-11 49.5 87.1 7.0
2016-09-10 58.8 77.8 4.0
2016-09-09 65.3 83.8 1.0 Rain
2016-09-08 68.1 83.1 2.0 Rain
2016-09-07 72.3 99.1 7.0
2016-09-06 70.9 98.6 7.0
2016-09-05 58.4 97.4 7.0
2016-09-04 51.7 99.4 5.0
2016-09-03 53.9 93.1 8.0
2016-09-02 55.3 81.2 7.0 Rain
2016-09-01 58.9 80.6 8.0 Rain
August, 2016
2016-08-31 64.2 90.0 5.0
2016-08-30 67.7 94.1 5.0
2016-08-29 69.0 99.8 6.0
2016-08-28 67.8 100.0 6.0 Rain
2016-08-27 70.1 95.1 7.0 Rain
2016-08-26 68.9 93.2 6.0
2016-08-25 70.2 90.5 8.0 Rain
2016-08-24 67.2 87.8 5.0
2016-08-23 53.4 92.3 7.0
2016-08-22 51.0 91.1 8.0
2016-08-21 59.1 80.8 7.0
2016-08-20 66.8 83.9 5.0 Rain
2016-08-19 67.1 96.5 6.0 Rain
2016-08-18 69.7 94.4 6.0 Rain
2016-08-17 72.5 93.2 6.0
2016-08-16 71.2 88.3 7.0 Rain
2016-08-15 68.1 75.8 1.0 Rain
2016-08-14 65.9 85.0 3.0
2016-08-13 73.8 92.1 6.0
2016-08-12 74.2 98.3 6.0
2016-08-11 73.8 99.1 6.0
2016-08-10 64.9 107.3 6.0
2016-08-09 60.1 103.0 6.0
2016-08-08 65.7 99.2 6.0
2016-08-07 53.9 91.5 7.0
2016-08-06 62.7 93.9 7.0
2016-08-05 70.4 90.1 6.0
2016-08-04 64.7 102.8 6.0
2016-08-03 63.3 106.8 7.0
2016-08-02 62.3 106.1 6.0
2016-08-01 61.5 98.9 7.0
July, 2016
2016-07-31 62.5 97.8 7.0
2016-07-30 66.9 90.8 6.0 Rain
2016-07-29 65.7 94.4 5.0 Rain
2016-07-28 65.1 101.7 6.0
2016-07-27 60.4 102.9 6.0
2016-07-26 64.1 104.2 7.0
2016-07-25 68.8 92.8 6.0 Rain
2016-07-24 70.1 99.2 6.0 Rain
2016-07-23 69.4 103.0 6.0
2016-07-22 71.9 94.6 6.0 Rain
2016-07-21 70.3 100.1 6.0 Rain
2016-07-20 67.6 96.1 7.0
2016-07-19 66.9 102.8 7.0 Rain
2016-07-18 68.1 86.7 4.0
2016-07-17 56.4 86.8 5.0
2016-07-16 60.1 1,000.0 1.0
2016-07-13 68.3 1,000.0 1.0
2016-07-12 68.7 96.1 7.0
2016-07-11 60.9 98.0 7.0
2016-07-10 52.3 94.4 7.0 Rain
2016-07-09 60.1 83.4 7.0 Rain
2016-07-08 66.3 93.4 7.0 Rain
2016-07-07 67.5 90.3 4.0 Rain
2016-07-06 67.7 92.4 7.0 Rain